DNIB

Ibadan Airport

Ibadan, Nigeria
METAR DNIB 201600Z VRB02KT 6000 SCT009 23/21 Q1010
Observed Flight Rules
Aug-20 @ 16:00 UTC (8 hours ago) Marginal Visual Flight Rules
Wind Visibility Clouds
Variable at 2 knots 6,003 meters
  • Scattered at 900' AGL
Temperatures Readings
Current 23°C / 73°F
Dewpoint 21°C / 70°F
Humidity 89%
Altimeter 29.82" Hg
Pressure 1010 hPa
Elevation 228
METAR DNIB 201600Z VRB02KT 6000 SCT009 23/21 Q1010
Observed Flight Rules
Aug-20 @ 16:00 UTC
(8 hours ago)
MVFR
Wind Visibility
Variable at 2 knots 6,003 meters
Clouds
  • Scattered at 900' AGL
Temperature Dewpoint
23°C / 73°F 21°C / 70°F
Humidity Altimeter Pressure
89% 29.82" Hg 1010 hPa